Pagrindinis puslapis
METAR-TAF:

METAR-TAF

Oro uostai :

Vigas, Ispanija

platuma: 42-13N, ilguma: 008-38W, Aukštis: 264 m

Dabartinis oras

Ataskaita buvo paskelbta 31 minutes, ne 02:00 UTC
Vėjas 5 kt iš Pietų/Pietvakarių
Temperatūra 13°C
Drėgmė 94%
Slėgis 1022 hPa
Matomumas 10 km arba daugiau
Išsisklaidę debesys ne aukštis 1000 ft
Su prošvaistėmis ne aukštis 3600 ft

METAR: LEVX 080200Z 20005KT 9999 SCT010 BKN036 13/12 Q1022 NOSIG

Laikas: 04:31 (02:31 UTC)

Prognozė

Ataskaita buvo paskelbta 3 valandos ir 31 minutes, ne 23:00 UTC
Prognozė galioja nuo 08 metu 00 UTC su 08 metu 24 UTC
Vėjas 6 kt iš Pietų/Pietvakarių
Matomumas 10 km arba daugiau
Išsisklaidę debesys ne aukštis 2000 ft
Laikinai
nuo 08 metu 00 UTC su 08 metu 08 UTC
Matomumas: 3000 m
rūkana
Tikimybė 40% :
Laikinai
nuo 08 metu 00 UTC su 08 metu 06 UTC
Matomumas: 0800 m
ne aukštis 100 ft
rūkas

TAF: LEVX 072300Z 0800/0824 20006KT 9999 SCT020 TX19/0812Z TN09/0806Z TEMPO 0800/0808 3000 BR PROB40 TEMPO 0800/0806 0800 FG VV001

Orai ataskaitas ir orų prognozės (METAR, TAF).

turimą stotys yra geltonos ir raudonos taškus žemėlapyje.

Perkelti pele per norėdami pamatyti stoties vardą.

Tada spustelėkite, norėdami matyti oro stebėjimo ir prognozės.

Norėdami pakeisti žemėlapį: spustelėkite ant žalios mygtukų su juodo kryžiaus žemyn,; žalią mygtuką su brūkšneliu, jei norite nutolinti; arba žalių rodyklių gretimoms žemėlapius.


METAR-TAF: